Time;durP1;ratioP1;P1;durP2;ratioP2;P2;SDS_P1;SDS_P2;PMS_P1;PMS_P2;Temp;Humidity;BMP_temperature;BMP_pressure;BME280_temperature;BME280_humidity;BME280_pressure;Samples;Min_cycle;Max_cycle;Signal;HPM_P1;HPM_P2
2023/09/28 00:01:04;;;;;;;16.10;14.70;;;16.80;76.70;;;;;;6190652;28;20236;-84
2023/09/28 00:04:06;;;;;;;15.73;14.23;;;16.70;76.80;;;;;;6183839;28;20794;-79
2023/09/28 00:07:10;;;;;;;14.80;13.63;;;16.70;76.90;;;;;;6184816;28;20247;-82
2023/09/28 00:10:16;;;;;;;16.30;15.00;;;16.60;77.00;;;;;;6192536;28;20326;-83
2023/09/28 00:13:19;;;;;;;18.00;16.50;;;16.60;77.10;;;;;;6186065;28;20255;-82
2023/09/28 00:16:23;;;;;;;17.00;15.30;;;16.60;77.20;;;;;;6187042;28;20381;-82
2023/09/28 00:19:27;;;;;;;16.20;15.00;;;16.60;77.20;;;;;;6190188;28;20243;-82
2023/09/28 00:22:30;;;;;;;14.50;13.47;;;16.60;77.10;;;;;;6192063;28;20242;-81
2023/09/28 00:25:34;;;;;;;15.23;14.00;;;16.50;77.20;;;;;;6193943;28;20236;-82
2023/09/28 00:28:36;;;;;;;14.73;13.70;;;16.50;77.20;;;;;;6194907;28;20324;-80
2023/09/28 00:31:44;;;;;;;15.53;14.17;;;16.40;77.20;;;;;;6191962;28;20235;-83
2023/09/28 00:34:47;;;;;;;14.77;13.63;;;16.40;77.30;;;;;;6184307;28;20244;-80
2023/09/28 00:37:51;;;;;;;15.33;14.17;;;16.40;77.40;;;;;;6191968;28;20240;-83
2023/09/28 00:40:54;;;;;;;16.63;15.13;;;16.40;77.40;;;;;;6195019;28;20339;-82
2023/09/28 00:43:57;;;;;;;17.17;15.53;;;16.30;77.70;;;;;;6188840;28;20247;-82
2023/09/28 00:47:02;;;;;;;16.93;15.53;;;16.30;77.70;;;;;;6194844;28;20239;-83
2023/09/28 00:50:10;;;;;;;16.03;14.40;;;16.30;77.80;;;;;;6186526;28;20236;-82
2023/09/28 00:53:14;;;;;;;17.67;16.10;;;16.20;77.90;;;;;;6195248;28;20822;-80
2023/09/28 00:56:17;;;;;;;17.77;16.17;;;16.20;77.90;;;;;;6186089;28;20254;-80
2023/09/28 00:59:21;;;;;;;18.93;16.93;;;16.20;78.00;;;;;;6193676;28;20290;-83
2023/09/28 01:02:26;;;;;;;16.57;15.07;;;16.20;78.00;;;;;;6194002;28;20251;-84
2023/09/28 01:05:33;;;;;;;17.43;15.83;;;16.20;77.90;;;;;;6186751;28;20244;-81
2023/09/28 01:08:37;;;;;;;18.27;16.47;;;16.20;77.90;;;;;;6188274;28;20580;-80
2023/09/28 01:11:41;;;;;;;18.27;16.73;;;16.20;78.00;;;;;;6196325;28;20237;-80
2023/09/28 01:14:44;;;;;;;19.27;17.47;;;16.20;77.90;;;;;;6188568;28;20244;-82
2023/09/28 01:17:47;;;;;;;17.10;15.50;;;16.10;77.80;;;;;;6185106;28;20240;-83
2023/09/28 01:20:54;;;;;;;16.47;15.20;;;16.20;77.70;;;;;;6184688;28;20254;-82
2023/09/28 01:24:02;;;;;;;16.50;15.03;;;16.10;77.70;;;;;;6194702;28;20236;-81
2023/09/28 01:27:06;;;;;;;19.50;16.40;;;16.10;77.70;;;;;;6194722;28;20240;-82
2023/09/28 01:30:11;;;;;;;18.67;16.60;;;16.00;77.80;;;;;;6192284;28;20239;-80
2023/09/28 01:33:14;;;;;;;16.87;15.33;;;16.10;77.70;;;;;;6193545;28;20250;-82
2023/09/28 01:36:19;;;;;;;15.57;14.17;;;16.00;77.70;;;;;;6191972;28;20242;-81
2023/09/28 01:39:23;;;;;;;16.77;15.37;;;16.00;77.60;;;;;;6175153;28;20723;-82
2023/09/28 01:42:26;;;;;;;16.03;14.70;;;16.00;77.60;;;;;;6190481;28;20243;-81
2023/09/28 01:45:29;;;;;;;17.97;16.23;;;16.00;77.60;;;;;;6178733;28;20271;-83
2023/09/28 01:48:32;;;;;;;16.33;15.03;;;15.90;77.80;;;;;;6188754;28;20615;-82
2023/09/28 01:51:35;;;;;;;17.17;15.57;;;15.80;77.80;;;;;;6182654;28;20236;-79
2023/09/28 01:54:39;;;;;;;17.43;16.00;;;15.80;77.70;;;;;;6192501;28;20313;-83
2023/09/28 01:57:42;;;;;;;17.57;16.20;;;15.80;77.90;;;;;;6192281;28;20238;-82
2023/09/28 02:00:45;;;;;;;15.93;14.77;;;15.80;77.90;;;;;;6192205;28;20291;-82
2023/09/28 02:03:48;;;;;;;15.17;13.97;;;15.80;77.90;;;;;;6194356;28;20235;-80
2023/09/28 02:06:53;;;;;;;15.70;14.37;;;15.80;77.90;;;;;;6185578;28;20307;-82
2023/09/28 02:09:57;;;;;;;17.47;16.03;;;15.70;77.80;;;;;;6186301;28;20235;-81
2023/09/28 02:13:00;;;;;;;16.70;15.20;;;15.60;77.80;;;;;;6190841;28;20347;-82
2023/09/28 02:16:03;;;;;;;16.20;14.90;;;15.60;78.00;;;;;;6176875;28;20259;-79
2023/09/28 02:19:06;;;;;;;18.20;16.33;;;15.60;77.90;;;;;;6186168;28;20239;-79
2023/09/28 02:22:09;;;;;;;17.23;15.80;;;15.60;78.00;;;;;;6191455;28;20248;-84
2023/09/28 02:25:17;;;;;;;16.63;15.03;;;15.50;78.00;;;;;;6191945;28;20240;-80
2023/09/28 02:28:21;;;;;;;17.80;16.00;;;15.50;78.00;;;;;;6190187;28;20312;-81
2023/09/28 02:31:23;;;;;;;17.03;15.57;;;15.50;78.00;;;;;;6192057;28;20315;-80
2023/09/28 02:34:26;;;;;;;18.23;16.43;;;15.50;78.00;;;;;;6184267;28;20250;-82
2023/09/28 02:37:29;;;;;;;17.37;15.87;;;15.40;78.10;;;;;;6187204;28;20867;-82
2023/09/28 02:40:34;;;;;;;17.23;15.73;;;15.40;78.10;;;;;;6188540;28;20235;-81
2023/09/28 02:43:40;;;;;;;17.20;15.47;;;15.40;78.10;;;;;;6187789;28;20258;-80
2023/09/28 02:46:42;;;;;;;17.03;15.27;;;15.40;78.10;;;;;;6183668;28;20755;-82
2023/09/28 02:49:46;;;;;;;18.00;15.60;;;15.40;78.00;;;;;;6199847;28;20237;-80
2023/09/28 02:52:52;;;;;;;16.80;15.03;;;15.30;78.10;;;;;;6201608;28;20247;-81
2023/09/28 02:55:56;;;;;;;18.03;16.27;;;15.30;78.00;;;;;;6188915;28;20612;-82
2023/09/28 02:58:59;;;;;;;18.43;16.67;;;15.30;78.10;;;;;;6189604;28;20239;-78
2023/09/28 03:02:03;;;;;;;18.07;16.37;;;15.30;78.00;;;;;;6190255;28;20322;-81
2023/09/28 03:05:08;;;;;;;17.33;15.70;;;15.20;77.90;;;;;;6196063;28;20243;-83
2023/09/28 03:08:14;;;;;;;15.57;14.23;;;15.20;77.80;;;;;;6191863;28;20274;-81
2023/09/28 03:11:19;;;;;;;15.80;14.27;;;15.20;77.60;;;;;;6193946;28;20242;-81
2023/09/28 03:14:22;;;;;;;16.10;14.40;;;15.20;77.60;;;;;;6194400;28;20244;-84
2023/09/28 03:17:24;;;;;;;15.63;14.03;;;15.20;77.50;;;;;;6193467;28;20236;-80
2023/09/28 03:20:28;;;;;;;14.20;13.10;;;15.10;77.50;;;;;;6187922;28;20305;-82
2023/09/28 03:23:31;;;;;;;15.70;14.30;;;15.10;77.40;;;;;;6178123;28;20252;-84
2023/09/28 03:26:35;;;;;;;17.07;15.23;;;15.00;77.40;;;;;;6192035;28;20370;-83
2023/09/28 03:29:38;;;;;;;16.77;15.17;;;15.00;77.40;;;;;;6188390;28;20280;-82
2023/09/28 03:32:41;;;;;;;15.67;14.30;;;15.00;77.40;;;;;;6187068;28;20349;-79
2023/09/28 03:35:44;;;;;;;16.00;14.50;;;15.00;77.40;;;;;;6185273;28;20236;-83
2023/09/28 03:38:48;;;;;;;15.53;14.23;;;15.00;77.40;;;;;;6187035;28;20237;-84
2023/09/28 03:41:54;;;;;;;16.80;15.00;;;15.00;77.50;;;;;;6192066;28;20629;-83
2023/09/28 03:44:57;;;;;;;15.40;14.13;;;14.90;77.50;;;;;;6194339;28;20656;-81
2023/09/28 03:48:00;;;;;;;13.87;12.77;;;14.90;77.50;;;;;;6193166;28;20770;-83
2023/09/28 03:51:06;;;;;;;13.73;12.73;;;14.90;77.50;;;;;;6188444;28;20830;-82
2023/09/28 03:54:09;;;;;;;14.20;13.17;;;14.80;77.40;;;;;;6187201;28;20252;-82
2023/09/28 03:57:14;;;;;;;13.47;12.47;;;14.80;77.40;;;;;;6175316;28;20241;-82
2023/09/28 04:00:19;;;;;;;14.70;13.50;;;14.80;77.40;;;;;;6185336;28;20738;-81
2023/09/28 04:03:22;;;;;;;16.67;15.10;;;14.80;77.50;;;;;;6189983;28;20247;-79
2023/09/28 04:06:25;;;;;;;15.60;14.27;;;14.70;77.50;;;;;;6183252;28;20318;-78
2023/09/28 04:09:29;;;;;;;16.00;14.60;;;14.70;77.50;;;;;;6184095;28;20284;-80
2023/09/28 04:12:33;;;;;;;13.40;12.50;;;14.80;77.50;;;;;;6187115;28;20740;-80
2023/09/28 04:15:36;;;;;;;13.03;12.03;;;14.70;77.40;;;;;;6186840;28;20248;-82
2023/09/28 04:18:39;;;;;;;13.47;12.57;;;14.70;77.30;;;;;;6190149;28;20653;-83
2023/09/28 04:21:43;;;;;;;15.47;14.27;;;14.60;77.30;;;;;;6187926;28;20322;-82
2023/09/28 04:24:46;;;;;;;15.43;14.03;;;14.60;77.30;;;;;;6173067;28;20240;-82
2023/09/28 04:27:50;;;;;;;16.33;14.93;;;14.60;77.50;;;;;;6187060;28;20240;-83
2023/09/28 04:30:54;;;;;;;17.03;15.17;;;14.60;77.50;;;;;;6185763;28;20240;-80
2023/09/28 04:33:58;;;;;;;15.20;13.93;;;14.60;77.50;;;;;;6187610;28;20329;-81
2023/09/28 04:37:03;;;;;;;16.40;14.83;;;14.60;77.50;;;;;;6185523;28;20321;-80
2023/09/28 04:40:08;;;;;;;13.63;12.53;;;14.60;77.50;;;;;;6187725;28;20343;-81
2023/09/28 04:43:12;;;;;;;14.37;13.03;;;14.50;77.50;;;;;;6188190;28;20905;-79
2023/09/28 04:46:15;;;;;;;15.00;13.57;;;14.50;77.40;;;;;;6187706;28;20298;-81
2023/09/28 04:49:18;;;;;;;13.40;12.40;;;14.50;77.50;;;;;;6188123;28;20251;-79
2023/09/28 04:52:22;;;;;;;13.67;12.63;;;14.50;77.50;;;;;;6185966;28;20901;-79
2023/09/28 04:55:25;;;;;;;16.60;15.00;;;14.40;77.50;;;;;;6187506;28;20276;-79
2023/09/28 04:58:30;;;;;;;14.73;13.53;;;14.40;77.50;;;;;;6181785;28;22150;-82
2023/09/28 05:01:33;;;;;;;13.80;12.77;;;14.40;77.50;;;;;;6186323;28;20236;-82
2023/09/28 05:04:36;;;;;;;16.00;14.60;;;14.40;77.50;;;;;;6180427;28;20252;-83
2023/09/28 05:07:39;;;;;;;15.27;13.97;;;14.40;77.50;;;;;;6184761;28;20247;-83
2023/09/28 05:10:43;;;;;;;15.67;14.03;;;14.50;77.50;;;;;;6184359;28;20239;-82
2023/09/28 05:13:47;;;;;;;14.27;13.20;;;14.40;77.50;;;;;;6198705;28;20247;-81
2023/09/28 05:16:51;;;;;;;14.57;13.27;;;14.40;77.50;;;;;;6197334;28;20231;-81
2023/09/28 05:19:54;;;;;;;15.03;13.70;;;14.40;77.50;;;;;;6189658;28;20762;-83
2023/09/28 05:22:57;;;;;;;16.63;15.07;;;14.50;77.50;;;;;;6187427;28;20244;-81
2023/09/28 05:26:01;;;;;;;17.33;15.53;;;14.40;77.60;;;;;;6186914;28;20262;-82
2023/09/28 05:29:06;;;;;;;17.43;15.73;;;14.50;77.50;;;;;;6192791;28;20240;-81
2023/09/28 05:32:10;;;;;;;20.43;15.83;;;14.50;77.60;;;;;;6193241;28;20263;-78
2023/09/28 05:35:13;;;;;;;16.70;14.93;;;14.50;77.40;;;;;;6183397;28;20248;-80
2023/09/28 05:38:17;;;;;;;15.30;13.90;;;14.60;77.40;;;;;;6171435;28;20243;-78
2023/09/28 05:41:21;;;;;;;17.70;15.30;;;14.60;77.40;;;;;;6187454;28;20240;-81
2023/09/28 05:44:25;;;;;;;18.37;16.13;;;14.70;77.30;;;;;;6186237;28;20318;-79
2023/09/28 05:47:29;;;;;;;16.60;13.73;;;14.70;77.20;;;;;;6190544;28;20286;-77
2023/09/28 05:50:32;;;;;;;16.93;15.23;;;14.70;77.10;;;;;;6178204;28;20626;-80
2023/09/28 05:53:35;;;;;;;16.57;14.83;;;14.80;76.90;;;;;;6181798;28;20255;-77
2023/09/28 05:56:39;;;;;;;23.73;15.90;;;14.80;76.80;;;;;;6179784;28;20240;-79
2023/09/28 05:59:43;;;;;;;19.10;15.43;;;14.90;76.50;;;;;;6183916;28;20263;-79
2023/09/28 06:02:46;;;;;;;17.43;15.73;;;15.00;76.40;;;;;;6167910;28;20298;-80
2023/09/28 06:05:49;;;;;;;16.00;14.40;;;15.00;76.20;;;;;;6195822;28;20240;-80
2023/09/28 06:08:52;;;;;;;14.90;13.70;;;15.00;76.20;;;;;;6181954;28;20738;-79
2023/09/28 06:11:57;;;;;;;17.00;15.27;;;15.00;76.10;;;;;;6178094;28;20270;-81
2023/09/28 06:15:04;;;;;;;16.23;14.63;;;15.10;76.00;;;;;;6186698;28;20274;-81
2023/09/28 06:18:10;;;;;;;17.60;15.27;;;15.20;75.80;;;;;;6188143;28;20248;-81
2023/09/28 06:21:13;;;;;;;19.60;15.67;;;15.30;75.50;;;;;;6185629;28;20250;-81
2023/09/28 06:24:16;;;;;;;15.63;14.33;;;15.40;75.30;;;;;;6189727;28;20259;-79
2023/09/28 06:27:20;;;;;;;15.27;13.87;;;15.50;75.10;;;;;;6188540;28;20243;-81
2023/09/28 06:30:24;;;;;;;23.63;16.23;;;15.60;75.10;;;;;;6183491;28;20323;-82
2023/09/28 06:33:30;;;;;;;16.77;15.37;;;15.60;74.80;;;;;;6191913;28;20235;-82
2023/09/28 06:36:34;;;;;;;15.07;13.50;;;15.60;74.90;;;;;;6179601;28;20224;-75
2023/09/28 06:39:40;;;;;;;14.97;13.60;;;15.80;74.90;;;;;;6184797;28;20330;-82
2023/09/28 06:42:43;;;;;;;19.47;15.23;;;15.90;74.80;;;;;;6187525;28;20240;-79
2023/09/28 06:45:47;;;;;;;16.97;15.47;;;16.00;74.60;;;;;;6189786;28;20232;-78
2023/09/28 06:48:51;;;;;;;19.00;17.07;;;16.10;74.50;;;;;;6192201;28;20224;-80
2023/09/28 06:51:55;;;;;;;17.83;16.07;;;16.20;74.10;;;;;;6190119;28;20228;-82
2023/09/28 06:54:58;;;;;;;20.50;15.20;;;16.40;73.40;;;;;;6186362;28;20259;-83
2023/09/28 06:58:03;;;;;;;17.13;15.50;;;16.50;73.00;;;;;;6191467;28;20251;-80
2023/09/28 07:01:08;;;;;;;19.63;15.53;;;16.50;72.80;;;;;;6185061;28;20290;-84
2023/09/28 07:04:11;;;;;;;16.70;15.20;;;16.60;72.50;;;;;;6191434;28;20240;-79
2023/09/28 07:07:17;;;;;;;17.27;15.47;;;16.70;72.50;;;;;;6189240;28;20276;-81
2023/09/28 07:10:23;;;;;;;16.33;14.70;;;16.90;72.40;;;;;;6192454;28;20231;-81
2023/09/28 07:13:26;;;;;;;16.77;14.87;;;17.20;72.20;;;;;;6184651;28;20266;-79
2023/09/28 07:16:36;;;;;;;18.87;16.03;;;17.20;71.40;;;;;;6191468;28;20299;-81
2023/09/28 07:19:40;;;;;;;17.47;15.77;;;17.20;71.30;;;;;;6178295;28;20241;-80
2023/09/28 07:22:43;;;;;;;16.03;14.37;;;17.30;71.50;;;;;;6194441;28;20314;-80
2023/09/28 07:25:47;;;;;;;21.83;16.67;;;17.40;71.60;;;;;;6188125;28;20240;-78
2023/09/28 07:28:51;;;;;;;18.17;16.47;;;17.50;70.90;;;;;;6190879;28;20232;-79
2023/09/28 07:31:56;;;;;;;16.07;14.57;;;17.50;71.20;;;;;;6189996;28;20294;-79
2023/09/28 07:35:00;;;;;;;18.40;15.50;;;17.50;71.40;;;;;;6188126;28;20236;-78
2023/09/28 07:38:04;;;;;;;16.83;14.60;;;17.60;71.30;;;;;;6191700;28;20303;-78
2023/09/28 07:41:07;;;;;;;18.37;15.37;;;17.60;71.50;;;;;;6182095;28;20235;-79
2023/09/28 07:44:14;;;;;;;16.30;14.33;;;17.80;71.30;;;;;;6190904;28;20255;-81
2023/09/28 07:47:19;;;;;;;17.73;16.03;;;17.80;70.90;;;;;;6187953;28;20245;-79
2023/09/28 07:50:23;;;;;;;17.27;15.57;;;18.00;70.90;;;;;;6186233;28;20282;-80
2023/09/28 07:53:26;;;;;;;19.40;16.53;;;18.00;70.40;;;;;;6190547;28;20247;-81
2023/09/28 07:56:30;;;;;;;18.43;16.13;;;18.10;70.30;;;;;;6185061;28;20712;-79
2023/09/28 07:59:33;;;;;;;17.03;15.27;;;18.20;70.20;;;;;;6190405;28;20236;-80
2023/09/28 08:02:37;;;;;;;17.17;15.47;;;18.30;70.00;;;;;;6191450;28;20247;-79
2023/09/28 08:05:41;;;;;;;17.07;15.43;;;18.40;70.10;;;;;;6190971;28;20807;-78
2023/09/28 08:08:44;;;;;;;16.73;14.67;;;18.50;69.90;;;;;;6189133;28;20283;-78
2023/09/28 08:11:48;;;;;;;16.47;14.60;;;18.60;70.30;;;;;;6187191;28;20236;-80
2023/09/28 08:14:52;;;;;;;16.70;14.93;;;18.70;69.80;;;;;;6185310;28;20866;-78
2023/09/28 08:17:57;;;;;;;15.60;13.93;;;18.90;69.50;;;;;;6182789;28;20323;-79
2023/09/28 08:21:00;;;;;;;14.77;13.37;;;19.10;69.30;;;;;;6182641;28;20236;-79
2023/09/28 08:24:12;;;;;;;13.53;12.33;;;19.20;69.30;;;;;;6185988;28;20236;-80
2023/09/28 08:27:16;;;;;;;15.70;14.07;;;19.40;69.30;;;;;;6188196;28;20825;-80
2023/09/28 08:30:19;;;;;;;16.37;14.60;;;19.50;68.90;;;;;;6191709;28;20228;-80
2023/09/28 08:33:24;;;;;;;23.90;15.33;;;19.70;68.80;;;;;;6187812;28;20232;-78
2023/09/28 08:36:27;;;;;;;19.60;14.77;;;19.90;68.30;;;;;;6189088;28;20322;-80
2023/09/28 08:39:31;;;;;;;15.47;13.83;;;20.00;68.00;;;;;;6185540;28;20278;-79
2023/09/28 08:42:37;;;;;;;16.80;15.07;;;20.10;68.10;;;;;;6190131;28;20251;-78
2023/09/28 08:45:43;;;;;;;18.20;15.33;;;20.30;67.40;;;;;;6181943;28;20263;-78
2023/09/28 08:48:50;;;;;;;17.40;15.67;;;20.50;67.10;;;;;;6189544;28;20237;-80
2023/09/28 08:51:54;;;;;;;17.90;15.47;;;20.60;66.90;;;;;;6191165;28;20323;-80
2023/09/28 08:54:59;;;;;;;16.77;15.13;;;20.80;66.50;;;;;;6185255;28;20239;-80
2023/09/28 08:58:04;;;;;;;17.83;15.37;;;20.90;65.90;;;;;;6191079;28;20854;-79
2023/09/28 09:01:08;;;;;;;15.90;14.00;;;21.00;66.10;;;;;;6183080;28;20731;-79
2023/09/28 09:04:13;;;;;;;14.43;13.33;;;21.10;65.50;;;;;;6185120;28;20360;-79
2023/09/28 09:07:17;;;;;;;15.03;13.63;;;21.30;65.80;;;;;;6189635;28;20248;-76
2023/09/28 09:10:21;;;;;;;14.20;12.90;;;21.40;65.80;;;;;;6203463;28;20306;-75
2023/09/28 09:13:24;;;;;;;16.17;14.47;;;21.50;65.80;;;;;;6217809;28;20444;-76
2023/09/28 09:16:28;;;;;;;16.07;14.53;;;21.50;65.60;;;;;;6216353;28;20295;-74
2023/09/28 09:19:33;;;;;;;14.50;13.20;;;21.60;65.30;;;;;;6217239;28;20238;-79
2023/09/28 09:22:37;;;;;;;14.67;13.17;;;21.70;65.60;;;;;;6214306;28;20706;-77
2023/09/28 09:26:00;;;;;;;16.27;12.93;;;21.90;65.60;;;;;;6214651;28;20237;-77
2023/09/28 09:29:04;;;;;;;13.30;12.30;;;21.90;65.60;;;;;;6212689;28;20716;-77
2023/09/28 09:32:07;;;;;;;13.87;12.37;;;22.00;65.40;;;;;;6215040;28;20251;-77
2023/09/28 09:35:13;;;;;;;12.90;11.57;;;22.10;65.00;;;;;;6218005;28;20220;-78
2023/09/28 09:38:16;;;;;;;12.60;11.40;;;22.30;64.60;;;;;;6218630;28;20228;-77
2023/09/28 09:41:19;;;;;;;12.20;11.20;;;22.50;64.20;;;;;;6217920;28;20299;-77
2023/09/28 09:44:24;;;;;;;11.67;10.77;;;22.70;63.50;;;;;;6217162;28;20287;-78
2023/09/28 09:47:27;;;;;;;16.50;11.13;;;22.80;63.40;;;;;;6219348;28;20224;-77
2023/09/28 09:50:35;;;;;;;12.70;11.23;;;22.90;63.40;;;;;;6215284;28;20246;-75
2023/09/28 09:53:41;;;;;;;12.80;11.53;;;23.10;62.80;;;;;;6221648;28;20323;-75
2023/09/28 09:56:46;;;;;;;17.23;11.40;;;23.10;62.80;;;;;;6221323;28;20220;-77
2023/09/28 09:59:54;;;;;;;11.00;10.17;;;23.00;62.80;;;;;;6219701;28;20275;-76
2023/09/28 10:02:59;;;;;;;10.27;9.50;;;23.20;62.80;;;;;;6222692;28;20239;-79
2023/09/28 10:06:05;;;;;;;12.00;10.93;;;23.30;62.50;;;;;;6216253;28;20228;-78
2023/09/28 10:09:10;;;;;;;11.17;10.07;;;23.60;61.90;;;;;;6224132;28;20212;-78
2023/09/28 10:12:13;;;;;;;10.53;9.63;;;23.60;61.30;;;;;;6197556;28;20252;-77
2023/09/28 10:15:17;;;;;;;10.80;9.50;;;23.80;60.50;;;;;;6193135;28;20683;-78
2023/09/28 10:18:21;;;;;;;10.17;9.40;;;23.90;60.60;;;;;;6180568;28;20286;-79
2023/09/28 10:21:26;;;;;;;9.50;8.70;;;24.00;61.00;;;;;;6191914;28;20231;-80
2023/09/28 10:24:32;;;;;;;9.67;8.87;;;24.20;59.40;;;;;;6195147;28;20243;-79
2023/09/28 10:27:39;;;;;;;8.57;7.73;;;24.40;59.80;;;;;;6198910;28;20250;-79
2023/09/28 10:30:45;;;;;;;9.07;8.37;;;24.40;57.40;;;;;;6198665;28;20776;-78
2023/09/28 10:34:01;;;;;;;8.67;7.77;;;24.40;58.40;;;;;;6186383;28;20246;-79
2023/09/28 10:37:22;;;;;;;8.53;8.03;;;24.60;57.50;;;;;;6197575;28;20244;-79
2023/09/28 10:40:26;;;;;;;10.23;8.20;;;24.60;58.20;;;;;;6201864;28;20247;-78
2023/09/28 10:43:51;;;;;;;12.20;7.20;;;24.70;58.20;;;;;;6192427;28;20251;-79
2023/09/28 10:46:54;;;;;;;9.47;8.67;;;25.00;57.10;;;;;;6190915;28;20391;-81
2023/09/28 10:50:01;;;;;;;8.30;7.70;;;24.80;56.90;;;;;;6192581;28;20250;-79
2023/09/28 10:53:05;;;;;;;9.13;8.53;;;24.90;57.10;;;;;;6187296;28;20254;-81
2023/09/28 10:56:10;;;;;;;8.20;7.20;;;24.80;56.90;;;;;;6187239;28;20247;-81
2023/09/28 10:59:15;;;;;;;8.30;7.50;;;25.00;56.70;;;;;;6181380;28;20295;-80
2023/09/28 11:02:19;;;;;;;7.37;6.93;;;25.00;56.50;;;;;;6191733;28;20263;-80
2023/09/28 11:05:23;;;;;;;7.77;7.13;;;25.30;55.10;;;;;;6178937;28;20278;-81
2023/09/28 11:08:28;;;;;;;8.17;7.47;;;25.40;55.40;;;;;;6202241;28;20276;-80
2023/09/28 11:11:31;;;;;;;12.60;9.53;;;25.50;55.30;;;;;;6185585;28;20264;-80
2023/09/28 11:14:36;;;;;;;9.33;8.53;;;25.40;55.70;;;;;;6189957;28;20246;-82
2023/09/28 11:17:40;;;;;;;12.70;8.60;;;25.40;56.50;;;;;;6185984;28;20236;-80
2023/09/28 11:20:43;;;;;;;8.87;8.07;;;25.40;55.80;;;;;;6183607;28;20236;-80
2023/09/28 11:23:51;;;;;;;7.50;7.00;;;25.40;55.50;;;;;;6187095;28;20371;-79
2023/09/28 11:26:56;;;;;;;13.77;7.97;;;25.50;56.00;;;;;;6182294;28;20236;-82
2023/09/28 11:30:02;;;;;;;8.47;7.03;;;25.80;55.50;;;;;;6183098;28;20777;-80
2023/09/28 11:33:07;;;;;;;12.17;6.77;;;25.80;54.90;;;;;;6189916;28;20239;-83
2023/09/28 11:36:16;;;;;;;7.57;6.60;;;26.10;53.90;;;;;;6185561;28;20279;-81
2023/09/28 11:39:20;;;;;;;6.80;6.30;;;26.30;52.80;;;;;;6179330;28;20226;-79
2023/09/28 11:42:23;;;;;;;6.67;6.27;;;26.20;52.90;;;;;;6182109;28;20790;-81
2023/09/28 11:45:28;;;;;;;7.27;6.63;;;26.40;52.70;;;;;;6203893;28;20232;-79
2023/09/28 11:48:32;;;;;;;7.87;7.17;;;26.20;52.30;;;;;;6188992;28;20425;-83
2023/09/28 11:51:36;;;;;;;7.37;6.43;;;26.30;52.70;;;;;;6189872;28;20236;-83
2023/09/28 11:54:41;;;;;;;6.10;5.50;;;26.50;51.80;;;;;;6178035;28;20255;-81
2023/09/28 11:57:44;;;;;;;6.07;5.67;;;26.40;51.50;;;;;;6189944;28;20402;-82
2023/09/28 12:00:49;;;;;;;7.00;6.23;;;26.60;52.30;;;;;;6190509;28;20700;-80
2023/09/28 12:03:52;;;;;;;6.90;6.37;;;26.70;50.90;;;;;;6188773;28;20274;-83
2023/09/28 12:06:55;;;;;;;6.77;6.27;;;26.80;50.80;;;;;;6191436;28;20814;-81
2023/09/28 12:10:00;;;;;;;7.13;5.90;;;27.00;50.70;;;;;;6181004;28;20237;-82
2023/09/28 12:13:07;;;;;;;5.70;5.23;;;26.90;50.70;;;;;;6170375;28;20730;-81
2023/09/28 12:16:12;;;;;;;6.30;5.80;;;26.60;51.50;;;;;;6190034;28;20251;-81
2023/09/28 12:19:16;;;;;;;6.90;6.53;;;26.40;50.70;;;;;;6189628;28;20235;-80
2023/09/28 12:22:21;;;;;;;7.50;6.77;;;26.40;51.80;;;;;;6196002;28;20236;-84
2023/09/28 12:25:28;;;;;;;8.63;7.93;;;26.20;51.60;;;;;;6188968;28;20240;-83
2023/09/28 12:28:33;;;;;;;6.53;6.03;;;26.10;51.80;;;;;;6187182;28;20827;-81
2023/09/28 12:31:36;;;;;;;5.90;5.50;;;26.10;51.60;;;;;;6190944;28;20889;-83
2023/09/28 12:34:39;;;;;;;6.20;5.80;;;26.20;51.40;;;;;;6192797;28;20255;-83
2023/09/28 12:37:44;;;;;;;6.50;6.10;;;26.20;50.70;;;;;;6181508;28;20637;-83
2023/09/28 12:40:49;;;;;;;6.03;5.70;;;26.50;50.90;;;;;;6189977;28;20906;-80
2023/09/28 12:43:52;;;;;;;6.60;6.00;;;26.90;51.30;;;;;;6186567;28;20241;-83
2023/09/28 12:46:56;;;;;;;5.83;5.37;;;27.20;50.70;;;;;;6189771;28;20699;-83
2023/09/28 12:49:59;;;;;;;6.03;5.63;;;27.10;50.40;;;;;;6188998;28;20684;-77
2023/09/28 12:53:03;;;;;;;5.90;5.50;;;27.10;49.80;;;;;;6182490;28;20246;-80
2023/09/28 12:56:09;;;;;;;5.83;5.33;;;27.10;49.50;;;;;;6186384;28;20240;-81
2023/09/28 12:59:13;;;;;;;6.70;5.57;;;27.00;49.50;;;;;;6189833;28;20319;-82
2023/09/28 13:02:16;;;;;;;6.43;5.97;;;26.90;50.00;;;;;;6185634;28;20825;-80
2023/09/28 13:05:19;;;;;;;6.47;6.07;;;26.90;50.00;;;;;;6172217;28;20248;-82
2023/09/28 13:08:23;;;;;;;6.13;5.73;;;26.90;50.20;;;;;;6180281;28;20236;-79
2023/09/28 13:11:27;;;;;;;6.20;5.67;;;26.90;49.80;;;;;;6187838;28;20239;-79
2023/09/28 13:14:31;;;;;;;5.10;4.90;;;26.80;50.20;;;;;;6189643;28;20231;-82
2023/09/28 13:17:35;;;;;;;6.80;5.90;;;26.80;49.80;;;;;;6186894;28;20234;-80
2023/09/28 13:20:39;;;;;;;6.43;5.90;;;26.80;50.20;;;;;;6186912;28;20232;-82
2023/09/28 13:23:43;;;;;;;6.17;5.60;;;26.70;49.80;;;;;;6194011;28;20239;-81
2023/09/28 13:26:48;;;;;;;6.33;5.73;;;26.60;49.90;;;;;;6185626;28;20256;-83
2023/09/28 13:29:51;;;;;;;5.43;5.13;;;26.50;50.40;;;;;;6177743;28;20259;-81
2023/09/28 13:32:55;;;;;;;5.10;4.80;;;26.70;50.80;;;;;;6189696;28;20335;-81
2023/09/28 13:35:58;;;;;;;5.37;5.10;;;26.90;51.10;;;;;;6180613;28;20523;-83
2023/09/28 13:39:04;;;;;;;6.30;5.70;;;27.00;50.90;;;;;;6184603;28;20240;-84
2023/09/28 13:42:10;;;;;;;6.00;5.60;;;27.00;50.40;;;;;;6186550;28;20248;-81
2023/09/28 13:45:13;;;;;;;6.63;6.10;;;26.90;51.10;;;;;;6185488;28;20240;-81
2023/09/28 13:48:17;;;;;;;6.13;5.80;;;27.00;51.50;;;;;;6179654;28;20235;-82
2023/09/28 13:51:20;;;;;;;6.57;6.10;;;27.10;51.80;;;;;;6188341;28;20236;-80
2023/09/28 13:54:23;;;;;;;7.67;6.90;;;27.10;51.80;;;;;;6188625;28;20239;-83
2023/09/28 13:57:27;;;;;;;7.93;7.27;;;27.20;51.80;;;;;;6188891;28;20243;-82
2023/09/28 14:00:37;;;;;;;7.27;6.50;;;27.10;51.60;;;;;;6186940;28;20326;-82
2023/09/28 14:03:40;;;;;;;7.07;6.07;;;27.10;51.50;;;;;;6185962;28;20620;-82
2023/09/28 14:06:44;;;;;;;8.43;6.87;;;27.10;51.60;;;;;;6187313;28;20320;-79
2023/09/28 14:09:49;;;;;;;8.30;6.60;;;26.80;51.90;;;;;;6181508;28;20386;-80
2023/09/28 14:12:56;;;;;;;7.27;6.47;;;26.60;52.20;;;;;;6184105;28;20629;-81
2023/09/28 14:16:01;;;;;;;7.60;6.87;;;26.70;52.40;;;;;;6188298;28;20323;-78
2023/09/28 14:19:06;;;;;;;10.10;7.50;;;26.70;52.60;;;;;;6186030;28;20310;-80
2023/09/28 14:22:09;;;;;;;6.83;6.40;;;26.80;52.90;;;;;;6182939;28;20770;-79
2023/09/28 14:25:13;;;;;;;7.93;7.13;;;26.50;52.60;;;;;;6188152;28;20240;-78
2023/09/28 14:28:17;;;;;;;7.73;7.03;;;26.60;52.50;;;;;;6188578;28;20240;-79
2023/09/28 14:31:20;;;;;;;8.17;7.47;;;26.70;52.70;;;;;;6180909;28;20240;-79
2023/09/28 14:34:23;;;;;;;7.87;6.90;;;26.60;52.40;;;;;;6187710;28;20246;-78
2023/09/28 14:37:26;;;;;;;8.67;7.73;;;26.60;52.70;;;;;;6191012;28;20827;-79
2023/09/28 14:40:32;;;;;;;7.60;6.90;;;26.60;52.80;;;;;;6187521;28;20227;-80
2023/09/28 14:43:37;;;;;;;7.70;7.20;;;26.60;52.80;;;;;;6186449;28;20778;-80
2023/09/28 14:46:40;;;;;;;7.87;7.03;;;26.50;52.60;;;;;;6189222;28;20326;-77
2023/09/28 14:49:46;;;;;;;7.43;6.97;;;26.40;52.60;;;;;;6194772;28;20231;-78
2023/09/28 14:52:49;;;;;;;7.67;7.13;;;26.20;52.60;;;;;;6189704;28;20701;-78
2023/09/28 14:55:52;;;;;;;7.77;7.07;;;26.20;52.70;;;;;;6187348;28;20240;-78
2023/09/28 14:58:59;;;;;;;7.80;7.30;;;26.10;52.90;;;;;;6186009;28;20270;-77
2023/09/28 15:02:03;;;;;;;8.43;7.67;;;26.00;53.00;;;;;;6188588;28;20767;-77
2023/09/28 15:05:09;;;;;;;7.43;6.80;;;25.90;53.20;;;;;;6189763;28;20326;-76
2023/09/28 15:08:12;;;;;;;8.00;7.27;;;25.80;53.00;;;;;;6182703;28;20243;-78
2023/09/28 15:11:20;;;;;;;7.30;6.80;;;25.80;53.70;;;;;;6190588;28;20375;-79
2023/09/28 15:14:25;;;;;;;6.37;5.87;;;25.60;53.40;;;;;;6190880;28;20244;-78
2023/09/28 15:17:28;;;;;;;7.70;6.90;;;25.60;53.60;;;;;;6190651;28;20250;-78
2023/09/28 15:20:34;;;;;;;8.00;7.50;;;25.40;53.20;;;;;;6188591;28;20294;-78
2023/09/28 15:23:38;;;;;;;7.50;7.00;;;25.20;53.60;;;;;;6186971;28;20258;-77
2023/09/28 15:26:41;;;;;;;7.73;7.03;;;25.10;54.00;;;;;;6182753;28;20819;-78
2023/09/28 15:29:45;;;;;;;6.47;6.07;;;25.00;54.50;;;;;;6188941;28;20252;-79
2023/09/28 15:32:50;;;;;;;7.30;6.57;;;25.00;54.50;;;;;;6187137;28;20236;-76
2023/09/28 15:35:55;;;;;;;9.83;6.93;;;24.90;54.10;;;;;;6188464;28;20239;-78
2023/09/28 15:39:01;;;;;;;6.93;6.57;;;24.80;55.00;;;;;;6192994;28;20243;-79
2023/09/28 15:42:04;;;;;;;6.87;6.40;;;24.70;55.00;;;;;;6185089;28;20243;-80